Time,TemperatureF,DewpointF,PressureIn,WindDirection,WindDirectionDegrees,WindSpeedMPH,WindSpeedGustMPH,Humidity,HourlyPrecipIn,Conditions,Clouds,dailyrainin,SoftwareType,DateUTC
2013-08-13 00:06:00,56.3,53.4,29.96,NNW,341,0.0,0.0,90,0.00,,---,0.00,VWS V14.01,2013-08-13 05:06:00,
2013-08-13 00:11:00,56.2,53.3,29.96,NNW,341,0.0,0.0,90,0.00,,---,0.00,VWS V14.01,2013-08-13 05:11:00,
2013-08-13 00:21:00,55.7,52.8,29.96,NNW,341,0.0,0.0,90,0.00,,---,0.00,VWS V14.01,2013-08-13 05:21:00,
2013-08-13 00:26:00,55.7,52.8,29.96,NNW,341,0.0,0.0,90,0.00,,---,0.00,VWS V14.01,2013-08-13 05:26:00,
2013-08-13 00:31:00,55.6,52.7,29.96,NNW,341,0.0,0.0,90,0.00,,---,0.00,VWS V14.01,2013-08-13 05:31:00,
2013-08-13 00:36:00,55.4,52.5,29.96,NNW,341,0.0,0.0,90,0.00,,---,0.00,VWS V14.01,2013-08-13 05:36:00,
2013-08-13 00:41:00,55.4,52.5,29.97,NNW,341,0.0,0.0,90,0.00,,---,0.00,VWS V14.01,2013-08-13 05:41:00,
2013-08-13 00:51:00,55.4,52.8,29.97,NNW,341,0.0,0.0,91,0.00,,---,0.00,VWS V14.01,2013-08-13 05:51:00,
2013-08-13 00:56:00,55.6,53.0,29.96,NNW,341,0.0,0.0,91,0.00,,---,0.00,VWS V14.01,2013-08-13 05:56:00,
2013-08-13 01:06:00,55.6,53.0,29.96,NNW,341,0.0,0.0,91,0.00,,---,0.00,VWS V14.01,2013-08-13 06:06:00,
2013-08-13 01:16:00,55.6,53.3,29.95,NNW,341,0.0,0.0,92,0.00,,---,0.00,VWS V14.01,2013-08-13 06:16:00,
2013-08-13 01:21:00,55.7,53.4,29.95,NNW,341,0.0,0.0,92,0.00,,---,0.00,VWS V14.01,2013-08-13 06:21:00,
2013-08-13 01:31:00,55.7,53.4,29.95,NNW,341,0.0,0.0,92,0.00,,---,0.00,VWS V14.01,2013-08-13 06:31:00,
2013-08-13 01:36:00,55.6,53.3,29.95,NNW,341,0.0,0.0,92,0.00,,---,0.00,VWS V14.01,2013-08-13 06:36:00,
2013-08-13 01:41:00,55.4,53.1,29.95,NNW,341,0.0,0.0,92,0.00,,---,0.00,VWS V14.01,2013-08-13 06:41:00,
2013-08-13 01:51:00,55.1,52.8,29.96,NNW,341,0.0,0.0,92,0.00,,---,0.00,VWS V14.01,2013-08-13 06:51:00,
2013-08-13 01:56:00,55.1,52.8,29.96,NNW,341,0.0,0.0,92,0.00,,---,0.00,VWS V14.01,2013-08-13 06:56:00,
2013-08-13 02:01:00,55.0,52.7,29.96,NNW,341,0.0,0.0,92,0.00,,---,0.00,VWS V14.01,2013-08-13 07:01:00,
2013-08-13 02:06:00,54.8,52.5,29.96,NNW,341,0.0,0.0,92,0.00,,---,0.00,VWS V14.01,2013-08-13 07:06:00,
2013-08-13 02:11:00,54.8,52.5,29.95,NNW,341,0.0,0.0,92,0.00,,---,0.00,VWS V14.01,2013-08-13 07:11:00,
2013-08-13 02:21:00,54.8,52.5,29.95,NNW,341,0.0,0.0,92,0.00,,---,0.00,VWS V14.01,2013-08-13 07:21:00,
2013-08-13 02:41:00,54.8,52.8,29.95,NNW,341,0.0,0.0,93,0.00,,---,0.00,VWS V14.01,2013-08-13 07:41:00,
2013-08-13 02:51:00,54.8,52.8,29.95,NNW,341,0.0,0.0,93,0.00,,---,0.00,VWS V14.01,2013-08-13 07:51:00,
2013-08-13 02:56:00,54.8,52.8,29.95,NNW,341,0.0,0.0,93,0.00,,---,0.00,VWS V14.01,2013-08-13 07:56:00,
2013-08-13 03:01:00,54.8,52.8,29.95,NNW,341,0.0,0.0,93,0.00,,---,0.00,VWS V14.01,2013-08-13 08:01:00,
2013-08-13 03:06:00,54.8,52.8,29.95,NNW,341,0.0,0.0,93,0.00,,---,0.00,VWS V14.01,2013-08-13 08:06:00,
2013-08-13 03:11:00,54.8,52.8,29.95,NNW,341,0.0,0.0,93,0.00,,---,0.00,VWS V14.01,2013-08-13 08:11:00,
2013-08-13 03:21:00,54.8,52.8,29.95,NNW,341,0.0,0.0,93,0.00,,---,0.00,VWS V14.01,2013-08-13 08:21:00,
2013-08-13 03:26:00,54.8,52.8,29.96,NNW,341,0.0,0.0,93,0.00,,---,0.00,VWS V14.01,2013-08-13 08:26:00,
2013-08-13 03:31:00,54.8,52.8,29.96,NNW,341,0.0,0.0,93,0.00,,---,0.00,VWS V14.01,2013-08-13 08:31:00,
2013-08-13 03:36:00,54.8,52.8,29.96,NNW,341,0.0,0.0,93,0.00,,---,0.00,VWS V14.01,2013-08-13 08:36:00,
2013-08-13 03:41:00,54.8,52.8,29.96,NNW,341,0.0,0.0,93,0.00,,---,0.00,VWS V14.01,2013-08-13 08:41:00,
2013-08-13 03:46:00,54.7,52.7,29.96,NNW,341,0.0,0.0,93,0.00,,---,0.00,VWS V14.01,2013-08-13 08:46:00,
2013-08-13 03:51:00,54.7,52.7,29.96,NNW,341,0.0,0.0,93,0.00,,---,0.00,VWS V14.01,2013-08-13 08:51:00,
2013-08-13 03:56:00,54.5,52.5,29.96,NNW,341,0.0,0.0,93,0.00,,---,0.00,VWS V14.01,2013-08-13 08:56:00,
2013-08-13 04:01:00,54.4,52.7,29.97,NNW,341,0.0,0.0,94,0.00,,---,0.00,VWS V14.01,2013-08-13 09:01:00,
2013-08-13 04:06:00,54.2,52.5,29.97,NNW,341,0.0,0.0,94,0.00,,---,0.00,VWS V14.01,2013-08-13 09:06:00,
2013-08-13 04:11:00,54.1,52.4,29.97,NNW,341,0.0,0.0,94,0.00,,---,0.00,VWS V14.01,2013-08-13 09:11:00,
2013-08-13 04:16:00,54.1,52.4,29.97,NNW,341,0.0,0.0,94,0.00,,---,0.00,VWS V14.01,2013-08-13 09:16:00,
2013-08-13 04:21:00,54.1,52.4,29.97,NNW,341,0.0,0.0,94,0.00,,---,0.00,VWS V14.01,2013-08-13 09:21:00,
2013-08-13 04:31:00,54.1,52.4,29.98,NNW,341,0.0,0.0,94,0.00,,---,0.00,VWS V14.01,2013-08-13 09:31:00,
2013-08-13 04:36:00,54.2,52.5,29.98,NNW,341,0.0,0.0,94,0.00,,---,0.00,VWS V14.01,2013-08-13 09:36:00,
2013-08-13 04:46:00,54.2,52.5,29.98,NNW,341,0.0,0.0,94,0.00,,---,0.00,VWS V14.01,2013-08-13 09:46:00,
2013-08-13 04:51:00,54.2,52.5,29.98,NNW,341,0.0,0.0,94,0.00,,---,0.00,VWS V14.01,2013-08-13 09:51:00,
2013-08-13 04:56:00,54.4,52.7,29.98,NNW,341,0.0,0.0,94,0.00,,---,0.00,VWS V14.01,2013-08-13 09:56:00,
2013-08-13 05:06:00,54.4,52.7,29.98,NNW,341,0.0,0.0,94,0.00,,---,0.00,VWS V14.01,2013-08-13 10:06:00,
2013-08-13 05:11:00,54.4,52.7,29.98,NNW,341,0.0,0.0,94,0.00,,---,0.00,VWS V14.01,2013-08-13 10:11:00,
2013-08-13 05:21:00,54.2,52.5,29.98,NNW,341,0.0,0.0,94,0.00,,---,0.00,VWS V14.01,2013-08-13 10:21:00,
2013-08-13 05:26:00,54.1,52.4,29.98,NNW,341,0.0,0.0,94,0.00,,---,0.00,VWS V14.01,2013-08-13 10:26:00,
2013-08-13 05:31:00,53.9,52.2,29.98,NNW,341,0.0,0.0,94,0.00,,---,0.00,VWS V14.01,2013-08-13 10:31:00,
2013-08-13 05:41:00,53.6,51.9,29.98,NNW,341,0.0,0.0,94,0.00,,---,0.00,VWS V14.01,2013-08-13 10:41:00,
2013-08-13 05:51:00,53.5,51.8,29.99,NNW,341,0.0,0.0,94,0.00,,---,0.00,VWS V14.01,2013-08-13 10:51:00,
2013-08-13 06:01:00,53.2,51.5,29.99,NNW,341,0.0,0.0,94,0.00,,---,0.00,VWS V14.01,2013-08-13 11:01:00,
2013-08-13 06:06:00,53.2,51.5,30.00,NNW,341,0.0,0.0,94,0.00,,---,0.00,VWS V14.01,2013-08-13 11:06:00,
2013-08-13 06:16:00,53.3,51.9,30.00,NNW,341,0.0,0.0,95,0.00,,---,0.00,VWS V14.01,2013-08-13 11:16:00,
2013-08-13 06:21:00,53.2,51.5,30.00,NNW,341,0.0,0.0,94,0.00,,---,0.00,VWS V14.01,2013-08-13 11:21:00,
2013-08-13 06:26:00,53.1,51.4,30.00,NNW,341,0.0,0.0,94,0.00,,---,0.00,VWS V14.01,2013-08-13 11:26:00,
2013-08-13 06:36:00,52.8,51.1,30.00,NNW,341,0.0,0.0,94,0.00,,---,0.00,VWS V14.01,2013-08-13 11:36:00,
2013-08-13 06:41:00,52.6,50.9,30.00,NNW,341,0.0,0.0,94,0.00,,---,0.00,VWS V14.01,2013-08-13 11:41:00,
2013-08-13 06:46:00,52.6,51.2,30.00,NNW,341,0.0,0.0,95,0.00,,---,0.00,VWS V14.01,2013-08-13 11:46:00,
2013-08-13 06:51:00,52.8,51.4,30.00,NNW,341,0.0,0.0,95,0.00,,---,0.00,VWS V14.01,2013-08-13 11:51:00,
2013-08-13 06:56:00,52.9,51.5,30.00,NNW,341,0.0,0.0,95,0.00,,---,0.00,VWS V14.01,2013-08-13 11:56:00,
2013-08-13 07:06:00,53.3,51.9,30.01,NNW,341,0.0,0.0,95,0.00,,---,0.00,VWS V14.01,2013-08-13 12:06:00,
2013-08-13 07:11:00,53.6,52.2,30.01,NNW,341,0.0,0.0,95,0.00,,---,0.00,VWS V14.01,2013-08-13 12:11:00,
2013-08-13 07:16:00,53.9,52.5,30.01,NNW,341,0.0,0.0,95,0.00,,---,0.00,VWS V14.01,2013-08-13 12:16:00,
2013-08-13 07:21:00,54.2,52.8,30.01,NNW,341,0.0,0.0,95,0.00,,---,0.00,VWS V14.01,2013-08-13 12:21:00,
2013-08-13 07:31:00,54.8,53.7,30.02,NNW,341,0.0,0.0,96,0.00,,---,0.00,VWS V14.01,2013-08-13 12:31:00,
2013-08-13 07:36:00,55.4,54.3,30.02,NNW,341,0.0,0.0,96,0.00,,---,0.00,VWS V14.01,2013-08-13 12:36:00,
2013-08-13 07:46:00,56.7,55.6,30.02,NNW,341,0.0,0.0,96,0.00,,---,0.00,VWS V14.01,2013-08-13 12:46:00,
2013-08-13 07:51:00,57.5,56.4,30.02,NNW,341,0.0,0.0,96,0.00,,---,0.00,VWS V14.01,2013-08-13 12:51:00,
2013-08-13 08:01:00,58.6,57.5,30.01,North,355,0.0,0.0,96,0.00,,---,0.00,VWS V14.01,2013-08-13 13:01:00,
2013-08-13 08:11:00,59.6,58.5,30.02,NNE,33,0.0,0.0,96,0.00,,---,0.00,VWS V14.01,2013-08-13 13:11:00,
2013-08-13 08:16:00,60.1,59.0,30.02,NE,40,0.0,0.0,96,0.00,,---,0.00,VWS V14.01,2013-08-13 13:16:00,
2013-08-13 08:26:00,61.0,59.9,30.02,NE,40,0.0,0.0,96,0.00,,---,0.00,VWS V14.01,2013-08-13 13:26:00,
2013-08-13 08:31:00,61.6,60.5,30.02,NE,40,0.0,0.0,96,0.00,,---,0.00,VWS V14.01,2013-08-13 13:31:00,
2013-08-13 08:36:00,62.0,60.8,30.02,NE,40,0.0,0.0,96,0.00,,---,0.00,VWS V14.01,2013-08-13 13:36:00,
2013-08-13 08:46:00,63.4,62.2,30.02,NE,40,0.0,0.0,96,0.00,,---,0.00,VWS V14.01,2013-08-13 13:46:00,
2013-08-13 08:51:00,64.2,62.7,30.03,NE,40,0.0,0.0,95,0.00,,---,0.00,VWS V14.01,2013-08-13 13:51:00,
2013-08-13 09:01:00,65.3,63.5,30.03,NE,34,0.0,0.0,94,0.00,,---,0.00,VWS V14.01,2013-08-13 14:01:00,
2013-08-13 09:06:00,65.8,63.7,30.03,NE,34,0.0,0.0,93,0.00,,---,0.00,VWS V14.01,2013-08-13 14:06:00,
2013-08-13 09:11:00,66.4,64.3,30.03,NE,42,0.0,0.0,93,0.00,,---,0.00,VWS V14.01,2013-08-13 14:11:00,
2013-08-13 09:16:00,67.1,64.4,30.03,NE,42,0.0,0.0,91,0.00,,---,0.00,VWS V14.01,2013-08-13 14:16:00,
2013-08-13 09:21:00,67.8,64.8,30.03,NE,42,0.0,0.0,90,0.00,,---,0.00,VWS V14.01,2013-08-13 14:21:00,
2013-08-13 09:26:00,68.4,64.4,30.04,NE,43,0.0,0.0,87,0.00,,---,0.00,VWS V14.01,2013-08-13 14:26:00,
2013-08-13 09:31:00,69.1,64.7,30.03,NE,42,0.0,0.0,86,0.00,,---,0.00,VWS V14.01,2013-08-13 14:31:00,
2013-08-13 09:36:00,69.4,64.4,30.04,NE,42,0.0,0.0,84,0.00,,---,0.00,VWS V14.01,2013-08-13 14:36:00,
2013-08-13 09:41:00,69.6,64.2,30.04,NE,42,0.0,0.0,83,0.00,,---,0.00,VWS V14.01,2013-08-13 14:41:00,
2013-08-13 09:46:00,70.1,64.7,30.04,NE,46,0.0,0.0,83,0.00,,---,0.00,VWS V14.01,2013-08-13 14:46:00,
2013-08-13 09:51:00,70.6,64.5,30.04,NE,46,0.0,0.0,81,0.00,,---,0.00,VWS V14.01,2013-08-13 14:51:00,
2013-08-13 09:56:00,71.1,64.6,30.04,NE,46,0.0,0.0,80,0.00,,---,0.00,VWS V14.01,2013-08-13 14:56:00,
2013-08-13 10:01:00,71.6,64.8,30.04,NE,46,0.0,0.0,79,0.00,,---,0.00,VWS V14.01,2013-08-13 15:01:00,
2013-08-13 10:06:00,71.8,64.9,30.04,East,86,0.0,0.0,79,0.00,,---,0.00,VWS V14.01,2013-08-13 15:06:00,
2013-08-13 10:11:00,72.3,65.1,30.04,East,101,0.0,0.0,78,0.00,,---,0.00,VWS V14.01,2013-08-13 15:11:00,
2013-08-13 10:16:00,72.8,65.2,30.04,East,94,0.0,0.0,77,0.00,,---,0.00,VWS V14.01,2013-08-13 15:16:00,
2013-08-13 10:21:00,73.2,65.2,30.05,ESE,104,0.0,0.0,76,0.00,,---,0.00,VWS V14.01,2013-08-13 15:21:00,
2013-08-13 10:26:00,73.7,65.3,30.05,ESE,105,0.0,0.0,75,0.00,,---,0.00,VWS V14.01,2013-08-13 15:26:00,
2013-08-13 10:31:00,73.9,65.1,30.04,East,91,0.0,0.0,74,0.00,,---,0.00,VWS V14.01,2013-08-13 15:31:00,
2013-08-13 10:41:00,74.0,64.8,30.05,ENE,78,0.0,0.0,73,0.00,,---,0.00,VWS V14.01,2013-08-13 15:41:00,
2013-08-13 10:51:00,74.4,64.8,30.06,ENE,62,0.0,1.0,72,0.00,,---,0.00,VWS V14.01,2013-08-13 15:51:00,
2013-08-13 10:56:00,74.4,64.0,30.05,NNE,29,0.0,0.0,70,0.00,,---,0.00,VWS V14.01,2013-08-13 15:56:00,
2013-08-13 11:06:00,75.4,64.9,30.06,NE,41,0.0,1.0,70,0.00,,---,0.00,VWS V14.01,2013-08-13 16:06:00,
2013-08-13 11:16:00,76.5,65.6,30.06,NE,38,0.0,0.0,69,0.00,,---,0.00,VWS V14.01,2013-08-13 16:16:00,
2013-08-13 11:21:00,76.8,65.4,30.05,NNE,33,0.0,0.0,68,0.00,,---,0.00,VWS V14.01,2013-08-13 16:21:00,
2013-08-13 11:31:00,77.4,65.2,30.06,NE,53,0.0,0.0,66,0.00,,---,0.00,VWS V14.01,2013-08-13 16:31:00,
2013-08-13 11:36:00,77.6,65.3,30.06,NE,36,0.0,1.0,66,0.00,,---,0.00,VWS V14.01,2013-08-13 16:36:00,
2013-08-13 11:41:00,77.9,65.2,30.05,NNE,32,0.0,0.0,65,0.00,,---,0.00,VWS V14.01,2013-08-13 16:41:00,
2013-08-13 11:46:00,78.1,65.4,30.05,NNE,32,0.0,0.0,65,0.00,,---,0.00,VWS V14.01,2013-08-13 16:46:00,
2013-08-13 11:51:00,77.9,64.8,30.05,NE,39,0.0,1.0,64,0.00,,---,0.00,VWS V14.01,2013-08-13 16:51:00,
2013-08-13 11:56:00,77.6,64.9,30.05,ENE,63,0.0,1.0,65,0.00,,---,0.00,VWS V14.01,2013-08-13 16:56:00,
2013-08-13 12:06:00,77.7,63.2,30.05,NE,49,0.0,1.0,61,0.00,,---,0.00,VWS V14.01,2013-08-13 17:06:00,
2013-08-13 12:16:00,78.8,65.2,30.05,NE,38,0.0,0.0,63,0.00,,---,0.00,VWS V14.01,2013-08-13 17:16:00,
2013-08-13 12:26:00,79.8,65.2,30.05,NNE,32,0.0,0.0,61,0.00,,---,0.00,VWS V14.01,2013-08-13 17:26:00,
2013-08-13 12:36:00,80.3,64.2,30.05,NE,36,0.0,0.0,58,0.00,,---,0.00,VWS V14.01,2013-08-13 17:36:00,
2013-08-13 12:41:00,80.5,63.4,30.05,NNE,32,0.0,0.0,56,0.00,,---,0.00,VWS V14.01,2013-08-13 17:41:00,
2013-08-13 12:46:00,80.3,63.2,30.05,ENE,59,0.0,1.0,56,0.00,,---,0.00,VWS V14.01,2013-08-13 17:46:00,
2013-08-13 12:51:00,79.8,64.7,30.05,NE,40,0.0,1.0,60,0.00,,---,0.00,VWS V14.01,2013-08-13 17:51:00,
2013-08-13 13:01:00,79.8,63.7,30.05,NE,38,0.0,1.0,58,0.00,,---,0.00,VWS V14.01,2013-08-13 18:01:00,
2013-08-13 13:11:00,80.1,63.5,30.05,NNE,29,0.0,2.0,57,0.00,,---,0.00,VWS V14.01,2013-08-13 18:11:00,
2013-08-13 13:21:00,80.9,64.2,30.05,NE,36,0.0,1.0,57,0.00,,---,0.00,VWS V14.01,2013-08-13 18:21:00,
2013-08-13 13:31:00,79.2,62.7,30.05,NNE,22,0.0,0.0,57,0.00,,---,0.00,VWS V14.01,2013-08-13 18:31:00,
2013-08-13 13:41:00,79.4,60.3,30.05,NE,41,0.0,1.0,52,0.00,,---,0.00,VWS V14.01,2013-08-13 18:41:00,
2013-08-13 13:51:00,79.0,60.4,30.05,East,92,0.0,1.0,53,0.00,,---,0.00,VWS V14.01,2013-08-13 18:51:00,
2013-08-13 13:56:00,78.3,60.8,30.05,East,85,0.0,1.0,55,0.00,,---,0.00,VWS V14.01,2013-08-13 18:56:00,
2013-08-13 14:01:00,78.1,59.6,30.05,NE,55,0.0,1.0,53,0.00,,---,0.00,VWS V14.01,2013-08-13 19:01:00,
2013-08-13 14:06:00,77.9,59.4,30.05,NE,49,0.0,0.0,53,0.00,,---,0.00,VWS V14.01,2013-08-13 19:06:00,
2013-08-13 14:11:00,78.5,61.5,30.05,NNE,30,0.0,0.0,56,0.00,,---,0.00,VWS V14.01,2013-08-13 19:11:00,
2013-08-13 14:16:00,79.0,60.4,30.05,NE,55,0.0,1.0,53,0.00,,---,0.00,VWS V14.01,2013-08-13 19:16:00,
2013-08-13 14:21:00,78.8,61.3,30.04,NE,45,0.0,1.0,55,0.00,,---,0.00,VWS V14.01,2013-08-13 19:21:00,
2013-08-13 14:31:00,80.5,62.9,30.05,NNE,28,0.0,0.0,55,0.00,,---,0.00,VWS V14.01,2013-08-13 19:31:00,
2013-08-13 14:36:00,80.7,60.9,30.04,NNE,27,0.0,0.0,51,0.00,,---,0.00,VWS V14.01,2013-08-13 19:36:00,
2013-08-13 14:41:00,80.3,61.6,30.04,East,88,0.0,1.0,53,0.00,,---,0.00,VWS V14.01,2013-08-13 19:41:00,
2013-08-13 14:51:00,76.8,57.3,30.04,East,88,0.0,1.0,51,0.00,,---,0.00,VWS V14.01,2013-08-13 19:51:00,
2013-08-13 14:56:00,77.0,59.1,30.04,ESE,103,0.0,2.0,54,0.00,,---,0.00,VWS V14.01,2013-08-13 19:56:00,
2013-08-13 15:01:00,77.2,58.2,30.04,ENE,61,0.0,1.0,52,0.00,,---,0.00,VWS V14.01,2013-08-13 20:01:00,
2013-08-13 15:11:00,77.2,58.2,30.04,ENE,63,0.0,1.0,52,0.00,,---,0.00,VWS V14.01,2013-08-13 20:11:00,
2013-08-13 15:16:00,75.6,55.1,30.04,ENE,65,0.0,1.0,49,0.00,,---,0.00,VWS V14.01,2013-08-13 20:16:00,
2013-08-13 15:26:00,74.7,57.0,30.04,NNE,16,0.0,1.0,54,0.00,,---,0.00,VWS V14.01,2013-08-13 20:26:00,
2013-08-13 15:31:00,76.3,59.0,30.03,NNE,27,0.0,2.0,55,0.00,,---,0.00,VWS V14.01,2013-08-13 20:31:00,
2013-08-13 15:41:00,77.7,59.8,30.03,NE,45,0.0,0.0,54,0.00,,---,0.00,VWS V14.01,2013-08-13 20:41:00,
2013-08-13 15:46:00,77.4,60.5,30.03,NE,45,0.0,0.0,56,0.00,,---,0.00,VWS V14.01,2013-08-13 20:46:00,
2013-08-13 15:56:00,76.8,56.8,30.03,NE,54,0.0,0.0,50,0.00,,---,0.00,VWS V14.01,2013-08-13 20:56:00,
2013-08-13 16:01:00,77.2,58.2,30.03,ENE,59,0.0,1.0,52,0.00,,---,0.00,VWS V14.01,2013-08-13 21:01:00,
2013-08-13 16:06:00,77.2,56.0,30.03,NNE,33,0.0,1.0,48,0.00,,---,0.00,VWS V14.01,2013-08-13 21:06:00,
2013-08-13 16:11:00,76.7,55.5,30.03,ENE,61,0.0,1.0,48,0.00,,---,0.00,VWS V14.01,2013-08-13 21:11:00,
2013-08-13 16:16:00,76.7,57.2,30.03,East,85,0.0,1.0,51,0.00,,---,0.00,VWS V14.01,2013-08-13 21:16:00,
2013-08-13 16:26:00,77.4,60.0,30.03,NNE,29,0.0,0.0,55,0.00,,---,0.00,VWS V14.01,2013-08-13 21:26:00,
2013-08-13 16:31:00,78.1,59.6,30.03,NNE,29,0.0,1.0,53,0.00,,---,0.00,VWS V14.01,2013-08-13 21:31:00,
2013-08-13 16:41:00,78.8,58.6,30.03,NNE,26,0.0,1.0,50,0.00,,---,0.00,VWS V14.01,2013-08-13 21:41:00,
2013-08-13 16:46:00,79.0,58.8,30.03,NE,40,0.0,1.0,50,0.00,,---,0.00,VWS V14.01,2013-08-13 21:46:00,
2013-08-13 16:51:00,78.5,57.8,30.03,East,82,0.0,1.0,49,0.00,,---,0.00,VWS V14.01,2013-08-13 21:51:00,
2013-08-13 16:56:00,77.4,56.2,30.03,NE,41,0.0,1.0,48,0.00,,---,0.00,VWS V14.01,2013-08-13 21:56:00,
2013-08-13 17:01:00,76.8,55.7,30.03,ENE,58,0.0,1.0,48,0.00,,---,0.00,VWS V14.01,2013-08-13 22:01:00,
2013-08-13 17:06:00,76.3,56.3,30.03,NE,40,0.0,1.0,50,0.00,,---,0.00,VWS V14.01,2013-08-13 22:06:00,
2013-08-13 17:11:00,75.8,56.9,30.03,NE,40,0.0,1.0,52,0.00,,---,0.00,VWS V14.01,2013-08-13 22:11:00,
2013-08-13 17:21:00,76.0,56.6,30.02,NE,37,0.0,1.0,51,0.00,,---,0.00,VWS V14.01,2013-08-13 22:21:00,
2013-08-13 17:26:00,76.5,57.6,30.02,NE,36,0.0,0.0,52,0.00,,---,0.00,VWS V14.01,2013-08-13 22:26:00,
2013-08-13 17:36:00,77.2,57.7,30.02,NE,38,0.0,0.0,51,0.00,,---,0.00,VWS V14.01,2013-08-13 22:36:00,
2013-08-13 17:41:00,77.2,56.6,30.02,NE,34,0.0,1.0,49,0.00,,---,0.00,VWS V14.01,2013-08-13 22:41:00,
2013-08-13 17:46:00,77.2,57.1,30.03,NE,34,0.0,1.0,50,0.00,,---,0.00,VWS V14.01,2013-08-13 22:46:00,
2013-08-13 17:51:00,77.4,58.4,30.03,NNE,32,0.0,0.0,52,0.00,,---,0.00,VWS V14.01,2013-08-13 22:51:00,
2013-08-13 18:01:00,76.8,55.1,30.03,ENE,62,0.0,0.0,47,0.00,,---,0.00,VWS V14.01,2013-08-13 23:01:00,
2013-08-13 18:06:00,76.0,55.5,30.03,ENE,61,0.0,0.0,49,0.00,,---,0.00,VWS V14.01,2013-08-13 23:06:00,
2013-08-13 18:11:00,74.7,54.8,30.03,NE,55,0.0,0.0,50,0.00,,---,0.00,VWS V14.01,2013-08-13 23:11:00,
2013-08-13 18:21:00,73.9,55.2,30.02,NNE,23,0.0,1.0,52,0.00,,---,0.00,VWS V14.01,2013-08-13 23:21:00,
2013-08-13 18:26:00,73.9,55.7,30.02,NNE,28,0.0,0.0,53,0.00,,---,0.00,VWS V14.01,2013-08-13 23:26:00,
2013-08-13 18:31:00,73.7,55.5,30.02,ENE,59,0.0,0.0,53,0.00,,---,0.00,VWS V14.01,2013-08-13 23:31:00,
2013-08-13 18:36:00,73.5,56.4,30.02,NNE,30,0.0,0.0,55,0.00,,---,0.00,VWS V14.01,2013-08-13 23:36:00,
2013-08-13 18:41:00,73.2,56.6,30.02,NNE,24,0.0,0.0,56,0.00,,---,0.00,VWS V14.01,2013-08-13 23:41:00,
2013-08-13 18:46:00,73.0,56.9,30.02,NNE,24,0.0,0.0,57,0.00,,---,0.00,VWS V14.01,2013-08-13 23:46:00,
2013-08-13 18:56:00,72.8,56.7,30.02,NNE,19,0.0,0.0,57,0.00,,---,0.00,VWS V14.01,2013-08-13 23:56:00,
2013-08-13 19:06:00,72.5,56.4,30.02,NE,40,0.0,0.0,57,0.00,,---,0.00,VWS V14.01,2013-08-14 00:06:00,
2013-08-13 19:11:00,72.3,56.7,30.02,NE,40,0.0,0.0,58,0.00,,---,0.00,VWS V14.01,2013-08-14 00:11:00,
2013-08-13 19:16:00,72.0,56.9,30.02,NE,40,0.0,0.0,59,0.00,,---,0.00,VWS V14.01,2013-08-14 00:16:00,
2013-08-13 19:21:00,71.8,56.7,30.02,NE,40,0.0,0.0,59,0.00,,---,0.00,VWS V14.01,2013-08-14 00:21:00,
2013-08-13 19:26:00,71.5,56.9,30.02,NE,40,0.0,0.0,60,0.00,,---,0.00,VWS V14.01,2013-08-14 00:26:00,
2013-08-13 19:31:00,71.3,57.2,30.02,NE,40,0.0,0.0,61,0.00,,---,0.00,VWS V14.01,2013-08-14 00:31:00,
2013-08-13 19:41:00,70.4,55.9,30.02,NE,40,0.0,0.0,60,0.00,,---,0.00,VWS V14.01,2013-08-14 00:41:00,
2013-08-13 19:46:00,69.8,56.2,30.02,NE,40,0.0,0.0,62,0.00,,---,0.00,VWS V14.01,2013-08-14 00:46:00,
2013-08-13 19:51:00,69.1,56.0,30.02,NE,40,0.0,0.0,63,0.00,,---,0.00,VWS V14.01,2013-08-14 00:51:00,
2013-08-13 19:56:00,68.6,56.0,30.02,NE,40,0.0,0.0,64,0.00,,---,0.00,VWS V14.01,2013-08-14 00:56:00,
2013-08-13 20:01:00,67.9,55.7,30.03,NE,40,0.0,0.0,65,0.00,,---,0.00,VWS V14.01,2013-08-14 01:01:00,
2013-08-13 20:06:00,67.3,55.2,30.02,NE,40,0.0,0.0,65,0.00,,---,0.00,VWS V14.01,2013-08-14 01:06:00,
2013-08-13 20:11:00,66.6,54.9,30.02,NE,40,0.0,0.0,66,0.00,,---,0.00,VWS V14.01,2013-08-14 01:11:00,
2013-08-13 20:16:00,66.1,54.4,30.02,NE,40,0.0,0.0,66,0.00,,---,0.00,VWS V14.01,2013-08-14 01:16:00,
2013-08-13 20:21:00,65.6,54.4,30.03,NE,40,0.0,0.0,67,0.00,,---,0.00,VWS V14.01,2013-08-14 01:21:00,
2013-08-13 20:26:00,65.2,54.4,30.03,NE,40,0.0,0.0,68,0.00,,---,0.00,VWS V14.01,2013-08-14 01:26:00,
2013-08-13 20:31:00,64.7,54.3,30.03,NE,40,0.0,0.0,69,0.00,,---,0.00,VWS V14.01,2013-08-14 01:31:00,
2013-08-13 20:36:00,64.2,54.2,30.04,NE,40,0.0,0.0,70,0.00,,---,0.00,VWS V14.01,2013-08-14 01:36:00,
2013-08-13 20:41:00,63.7,54.1,30.04,NE,40,0.0,0.0,71,0.00,,---,0.00,VWS V14.01,2013-08-14 01:41:00,
2013-08-13 20:51:00,62.6,53.5,30.04,NE,40,0.0,0.0,72,0.00,,---,0.00,VWS V14.01,2013-08-14 01:51:00,
2013-08-13 20:56:00,62.3,53.9,30.04,NE,40,0.0,0.0,74,0.00,,---,0.00,VWS V14.01,2013-08-14 01:56:00,
2013-08-13 21:06:00,61.5,53.2,30.04,NE,40,0.0,0.0,74,0.00,,---,0.00,VWS V14.01,2013-08-14 02:06:00,
2013-08-13 21:16:00,60.9,53.3,30.05,NE,40,0.0,0.0,76,0.00,,---,0.00,VWS V14.01,2013-08-14 02:16:00,
2013-08-13 21:21:00,60.5,52.9,30.05,NE,40,0.0,0.0,76,0.00,,---,0.00,VWS V14.01,2013-08-14 02:21:00,
2013-08-13 21:26:00,60.2,53.0,30.05,NE,40,0.0,0.0,77,0.00,,---,0.00,VWS V14.01,2013-08-14 02:26:00,
2013-08-13 21:31:00,59.9,53.0,30.05,NE,40,0.0,0.0,78,0.00,,---,0.00,VWS V14.01,2013-08-14 02:31:00,
2013-08-13 21:41:00,59.5,53.0,30.06,NE,47,0.0,0.0,79,0.00,,---,0.00,VWS V14.01,2013-08-14 02:41:00,
2013-08-13 21:51:00,58.9,52.4,30.06,NE,47,0.0,0.0,79,0.00,,---,0.00,VWS V14.01,2013-08-14 02:51:00,
2013-08-13 21:56:00,58.6,52.5,30.06,NE,47,0.0,0.0,80,0.00,,---,0.00,VWS V14.01,2013-08-14 02:56:00,
2013-08-13 22:01:00,58.1,52.0,30.07,NE,47,0.0,0.0,80,0.00,,---,0.00,VWS V14.01,2013-08-14 03:01:00,
2013-08-13 22:06:00,57.8,52.0,30.07,NE,47,0.0,0.0,81,0.00,,---,0.00,VWS V14.01,2013-08-14 03:06:00,
2013-08-13 22:16:00,57.2,51.4,30.07,NE,47,0.0,0.0,81,0.00,,---,0.00,VWS V14.01,2013-08-14 03:16:00,
2013-08-13 22:26:00,56.6,51.2,30.06,NE,47,0.0,0.0,82,0.00,,---,0.00,VWS V14.01,2013-08-14 03:26:00,
2013-08-13 22:31:00,56.5,51.1,30.06,NE,47,0.0,0.0,82,0.00,,---,0.00,VWS V14.01,2013-08-14 03:31:00,
2013-08-13 22:36:00,56.2,50.8,30.07,NE,47,0.0,0.0,82,0.00,,---,0.00,VWS V14.01,2013-08-14 03:36:00,
2013-08-13 22:46:00,55.6,50.5,30.07,NE,47,0.0,0.0,83,0.00,,---,0.00,VWS V14.01,2013-08-14 03:46:00,
2013-08-13 22:51:00,55.4,50.3,30.07,NE,47,0.0,0.0,83,0.00,,---,0.00,VWS V14.01,2013-08-14 03:51:00,
2013-08-13 23:01:00,55.3,50.6,30.07,NE,47,0.0,0.0,84,0.00,,---,0.00,VWS V14.01,2013-08-14 04:01:00,
2013-08-13 23:06:00,55.4,51.0,30.07,NE,47,0.0,0.0,85,0.00,,---,0.00,VWS V14.01,2013-08-14 04:06:00,
2013-08-13 23:11:00,55.9,51.8,30.07,NE,47,0.0,0.0,86,0.00,,---,0.00,VWS V14.01,2013-08-14 04:11:00,
2013-08-13 23:16:00,56.3,52.2,30.07,NE,47,0.0,0.0,86,0.00,,---,0.00,VWS V14.01,2013-08-14 04:16:00,
2013-08-13 23:21:00,56.3,52.2,30.07,NE,47,0.0,0.0,86,0.00,,---,0.00,VWS V14.01,2013-08-14 04:21:00,
2013-08-13 23:26:00,56.0,51.6,30.07,NE,47,0.0,0.0,85,0.00,,---,0.00,VWS V14.01,2013-08-14 04:26:00,
2013-08-13 23:31:00,55.6,51.2,30.07,NE,47,0.0,0.0,85,0.00,,---,0.00,VWS V14.01,2013-08-14 04:31:00,
2013-08-13 23:36:00,55.1,51.0,30.07,NE,47,0.0,0.0,86,0.00,,---,0.00,VWS V14.01,2013-08-14 04:36:00,
2013-08-13 23:41:00,54.8,50.7,30.07,NE,47,0.0,0.0,86,0.00,,---,0.00,VWS V14.01,2013-08-14 04:41:00,
2013-08-13 23:51:00,54.5,50.7,30.08,NE,47,0.0,0.0,87,0.00,,---,0.00,VWS V14.01,2013-08-14 04:51:00,
2013-08-13 23:56:00,55.0,51.2,30.08,NE,47,0.0,0.0,87,0.00,,---,0.00,VWS V14.01,2013-08-14 04:56:00,